Time;durP1;ratioP1;P1;durP2;ratioP2;P2;SDS_P1;SDS_P2;PMS_P1;PMS_P2;Temp;Humidity;BMP_temperature;BMP_pressure;BME280_temperature;BME280_humidity;BME280_pressure;Samples;Min_cycle;Max_cycle;Signal;HPM_P1;HPM_P2
2022/05/20 00:02:01;;;;;;;9.70;8.70;;;;;;;9.05;62.73;98417.55;106181;1274;24294;-86
2022/05/20 00:04:29;;;;;;;9.90;8.20;;;;;;;8.99;62.78;98416.65;106055;1276;22705;-85
2022/05/20 00:06:57;;;;;;;13.90;8.00;;;;;;;8.93;62.62;98412.34;105748;1276;22796;-83
2022/05/20 00:09:25;;;;;;;13.00;8.40;;;;;;;8.88;62.63;98409.98;105896;1274;22573;-85
2022/05/20 00:11:54;;;;;;;10.40;8.30;;;;;;;8.84;62.86;98411.45;105874;1274;25670;-86
2022/05/20 00:14:22;;;;;;;14.10;8.50;;;;;;;8.78;63.97;98412.34;106108;1274;24304;-86
2022/05/20 00:16:50;;;;;;;12.30;8.60;;;;;;;8.73;64.18;98412.23;105926;1278;22625;-87
2022/05/20 00:19:18;;;;;;;16.10;8.70;;;;;;;8.71;64.48;98413.75;105738;1274;22868;-86
2022/05/20 00:21:46;;;;;;;11.60;8.30;;;;;;;8.70;64.61;98411.11;105997;1274;22620;-87
2022/05/20 00:24:14;;;;;;;13.50;9.00;;;;;;;8.70;64.71;98414.40;105870;1277;25525;-85
2022/05/20 00:26:42;;;;;;;11.70;8.70;;;;;;;8.68;64.65;98412.30;105814;1277;23241;-87
2022/05/20 00:29:10;;;;;;;11.00;8.40;;;;;;;8.65;64.50;98411.19;106100;1274;24375;-85
2022/05/20 00:31:38;;;;;;;11.80;8.50;;;;;;;8.64;64.21;98412.31;105823;1277;22657;-85
2022/05/20 00:34:06;;;;;;;12.90;8.50;;;;;;;8.58;64.57;98410.61;105689;1274;22610;-85
2022/05/20 00:36:34;;;;;;;12.50;8.50;;;;;;;8.56;64.23;98402.67;106148;1274;22902;-85
2022/05/20 00:39:03;;;;;;;9.60;8.60;;;;;;;8.54;64.71;98399.77;105791;1276;22715;-86
2022/05/20 00:41:31;;;;;;;13.90;8.60;;;;;;;8.48;65.16;98396.52;105814;1274;22720;-86
2022/05/20 00:43:59;;;;;;;10.80;8.40;;;;;;;8.46;65.14;98393.08;105819;1274;25418;-84
2022/05/20 00:46:28;;;;;;;14.10;9.70;;;;;;;8.43;65.79;98393.40;105788;1274;22616;-87
2022/05/20 00:49:13;;;;;;;9.90;8.50;;;;;;;8.36;65.82;98398.28;105936;1274;26066;-87
2022/05/20 00:51:48;;;;;;;11.20;8.40;;;;;;;8.29;65.88;98397.60;105981;1274;22751;-86
2022/05/20 00:54:23;;;;;;;11.20;8.80;;;;;;;8.23;65.68;98401.20;105827;1274;25254;-87
2022/05/20 00:57:00;;;;;;;12.00;8.30;;;;;;;8.18;65.64;98400.08;106167;1274;25403;-85
2022/05/20 00:59:31;;;;;;;11.80;9.10;;;;;;;8.17;65.40;98398.04;106316;1274;22557;-85
2022/05/20 01:02:08;;;;;;;10.90;8.10;;;;;;;8.19;64.92;98393.27;106643;1274;22554;-85
2022/05/20 01:04:37;;;;;;;12.40;8.70;;;;;;;8.13;65.48;98392.23;106036;1274;22681;-88
2022/05/20 01:07:07;;;;;;;10.50;9.00;;;;;;;8.07;66.40;98390.98;105795;1276;24594;-86
2022/05/20 01:09:37;;;;;;;11.70;8.70;;;;;;;8.08;66.50;98386.77;106153;1274;22625;-84
2022/05/20 01:12:07;;;;;;;12.70;8.90;;;;;;;8.09;66.69;98379.10;105745;1277;22543;-85
2022/05/20 01:14:35;;;;;;;12.10;9.40;;;;;;;8.07;67.30;98383.35;105951;1274;22691;-86
2022/05/20 01:17:04;;;;;;;10.90;9.70;;;;;;;8.06;67.21;98382.70;105938;1274;22564;-86
2022/05/20 01:19:39;;;;;;;12.90;8.30;;;;;;;8.05;66.92;98379.10;105832;1275;25442;-86
2022/05/20 01:22:11;;;;;;;11.90;8.90;;;;;;;8.08;66.63;98376.52;106177;1275;22643;-86
2022/05/20 01:24:39;;;;;;;11.10;8.50;;;;;;;8.10;67.39;98374.70;106081;1274;23024;-84
2022/05/20 01:27:07;;;;;;;13.90;9.40;;;;;;;8.12;67.41;98371.75;105812;1274;22765;-87
2022/05/20 01:29:35;;;;;;;11.30;9.10;;;;;;;8.14;67.43;98370.56;105868;1274;23978;-86
2022/05/20 01:32:03;;;;;;;14.40;9.10;;;;;;;8.10;67.50;98376.89;105931;1274;25361;-85
2022/05/20 01:34:31;;;;;;;11.00;9.00;;;;;;;8.12;67.69;98370.36;105972;1274;22641;-84
2022/05/20 01:36:59;;;;;;;12.70;8.70;;;;;;;8.16;67.38;98371.73;105912;1274;22638;-84
2022/05/20 01:39:27;;;;;;;14.20;9.80;;;;;;;8.18;67.72;98372.49;105846;1274;22529;-87
2022/05/20 01:42:03;;;;;;;14.60;10.20;;;;;;;8.16;67.53;98369.32;105717;1276;22762;-85
2022/05/20 01:44:37;;;;;;;13.40;9.60;;;;;;;8.19;67.30;98373.67;105826;1274;23343;-84
2022/05/20 01:47:19;;;;;;;11.70;8.30;;;;;;;8.20;67.77;98374.94;105803;1274;22626;-87
2022/05/20 01:50:21;;;;;;;13.20;8.80;;;;;;;8.18;68.08;98375.50;106770;1274;22686;-78
2022/05/20 01:53:22;;;;;;;11.60;8.90;;;;;;;8.19;67.55;98369.27;109662;1274;22572;-81
2022/05/20 01:55:56;;;;;;;12.40;9.00;;;;;;;8.20;68.19;98373.02;109478;1274;22637;-80
2022/05/20 01:58:31;;;;;;;12.00;8.80;;;;;;;8.17;68.22;98371.20;108992;1274;22552;-83
2022/05/20 02:01:08;;;;;;;12.10;8.60;;;;;;;8.21;68.36;98367.96;108392;1274;25382;-86
2022/05/20 02:03:53;;;;;;;12.70;8.20;;;;;;;8.23;67.95;98370.60;109126;1274;22542;-88
2022/05/20 02:06:27;;;;;;;13.10;8.60;;;;;;;8.23;67.74;98370.11;109002;1274;23069;-87
2022/05/20 02:09:00;;;;;;;13.90;9.30;;;;;;;8.28;68.13;98376.17;108100;1274;22536;-86
2022/05/20 02:11:38;;;;;;;14.80;9.50;;;;;;;8.31;68.25;98374.88;106650;1274;24438;-86
2022/05/20 02:14:35;;;;;;;13.90;8.30;;;;;;;8.30;68.54;98372.36;105806;1274;25419;-86
2022/05/20 02:17:12;;;;;;;17.40;9.70;;;;;;;8.30;68.70;98368.13;105569;1277;22556;-86
2022/05/20 02:19:47;;;;;;;10.60;7.80;;;;;;;8.29;68.80;98367.59;105679;1278;25529;-86
2022/05/20 02:22:19;;;;;;;9.30;8.00;;;;;;;8.29;68.16;98358.61;105848;1277;23501;-87
2022/05/20 02:24:47;;;;;;;11.40;7.80;;;;;;;8.33;68.74;98363.11;105802;1277;24434;-87
2022/05/20 02:27:22;;;;;;;10.00;7.30;;;;;;;8.35;68.81;98364.19;105975;1278;24438;-87
2022/05/20 02:30:05;;;;;;;9.80;7.20;;;;;;;8.42;68.58;98361.35;105714;1277;22700;-87
2022/05/20 02:32:46;;;;;;;11.80;8.30;;;;;;;8.44;68.32;98357.09;105985;1277;24070;-86
2022/05/20 02:35:15;;;;;;;13.40;7.70;;;;;;;8.37;68.54;98356.72;105789;1277;24226;-86
2022/05/20 02:37:43;;;;;;;12.70;8.60;;;;;;;8.34;68.69;98357.67;105795;1277;22552;-86
2022/05/20 02:40:15;;;;;;;13.90;7.70;;;;;;;8.30;68.72;98361.09;106135;1278;22696;-86
2022/05/20 02:42:43;;;;;;;9.60;7.90;;;;;;;8.24;68.67;98355.30;106627;1278;22557;-87
2022/05/20 02:45:13;;;;;;;11.10;6.50;;;;;;;8.25;68.34;98356.32;106054;1277;23305;-86
2022/05/20 02:47:41;;;;;;;11.90;7.40;;;;;;;8.24;68.22;98355.30;105758;1277;25410;-86
2022/05/20 02:50:11;;;;;;;11.10;7.20;;;;;;;8.23;68.11;98355.84;105954;1274;22580;-85
2022/05/20 02:52:39;;;;;;;11.60;8.00;;;;;;;8.20;67.73;98350.90;105823;1275;25519;-86
2022/05/20 02:55:08;;;;;;;8.90;7.10;;;;;;;8.22;67.61;98344.83;105978;1274;24285;-85
2022/05/20 02:57:36;;;;;;;8.00;6.30;;;;;;;8.28;67.71;98338.70;105964;1274;22868;-87
2022/05/20 03:05:40;;;;;;;13.20;6.40;;;;;;;8.35;67.54;98338.20;105868;1274;23444;-86
2022/05/20 03:08:08;;;;;;;12.50;7.20;;;;;;;8.37;68.18;98341.25;106068;1274;22702;-85
2022/05/20 03:10:36;;;;;;;11.10;6.80;;;;;;;8.34;68.23;98344.59;106064;1274;23402;-86
2022/05/20 03:13:07;;;;;;;13.70;7.60;;;;;;;8.27;68.61;98350.25;105891;1275;24442;-85
2022/05/20 03:15:39;;;;;;;8.50;6.40;;;;;;;8.20;68.10;98347.85;106206;1274;22712;-86
2022/05/20 03:18:10;;;;;;;9.60;6.60;;;;;;;8.16;68.02;98341.79;105918;1274;22564;-86
2022/05/20 03:20:38;;;;;;;11.80;7.00;;;;;;;8.19;68.13;98340.32;105908;1274;23230;-85
2022/05/20 03:23:09;;;;;;;10.70;7.30;;;;;;;8.21;68.94;98340.48;105982;1274;22550;-85
2022/05/20 03:25:38;;;;;;;11.80;8.20;;;;;;;8.23;69.09;98345.00;106065;1274;22552;-87
2022/05/20 03:28:11;;;;;;;12.60;7.70;;;;;;;8.27;68.78;98343.58;106123;1276;22722;-88
2022/05/20 03:30:39;;;;;;;9.20;6.90;;;;;;;8.30;68.77;98345.63;106101;1274;25360;-86
2022/05/20 03:33:07;;;;;;;11.00;8.50;;;;;;;8.35;68.49;98348.02;105846;1274;24377;-86
2022/05/20 03:35:35;;;;;;;13.80;7.20;;;;;;;8.40;68.78;98354.05;105983;1274;22694;-87
2022/05/20 03:38:04;;;;;;;12.90;8.40;;;;;;;8.46;68.92;98363.00;105943;1274;22574;-86
2022/05/20 03:40:32;;;;;;;8.70;7.40;;;;;;;8.54;68.81;98364.10;105920;1275;25331;-86
2022/05/20 03:43:00;;;;;;;10.70;7.90;;;;;;;8.58;68.64;98371.83;105774;1276;23153;-87
2022/05/20 03:45:28;;;;;;;10.80;7.20;;;;;;;8.62;68.34;98373.38;106007;1274;22558;-86
2022/05/20 03:47:56;;;;;;;11.70;7.80;;;;;;;8.67;68.30;98366.16;105958;1274;25409;-86
2022/05/20 03:50:24;;;;;;;10.00;6.90;;;;;;;8.80;68.24;98368.04;105799;1274;22577;-87
2022/05/20 03:52:54;;;;;;;9.10;7.60;;;;;;;8.99;68.26;98364.14;105745;1274;22825;-87
2022/05/20 03:55:23;;;;;;;9.90;7.00;;;;;;;9.14;67.65;98364.92;105880;1274;24994;-86
2022/05/20 03:57:51;;;;;;;12.00;8.00;;;;;;;9.32;67.68;98369.48;105747;1276;22545;-85
2022/05/20 04:00:20;;;;;;;10.60;7.90;;;;;;;9.56;67.58;98364.92;105800;1274;24438;-84
2022/05/20 04:02:48;;;;;;;8.60;7.40;;;;;;;9.79;67.28;98363.23;105764;1274;22738;-84
2022/05/20 04:05:16;;;;;;;8.20;6.70;;;;;;;10.03;67.24;98362.42;105800;1274;24235;-87
2022/05/20 04:07:43;;;;;;;10.10;7.00;;;;;;;10.26;66.96;98356.35;105850;1274;22580;-86
2022/05/20 04:10:11;;;;;;;9.40;6.50;;;;;;;10.48;66.63;98352.36;105723;1276;22863;-87
2022/05/20 04:12:42;;;;;;;12.10;10.90;;;;;;;10.69;66.52;98346.95;105893;1274;24401;-85
2022/05/20 04:15:13;;;;;;;12.30;10.90;;;;;;;10.87;66.04;98348.11;105772;1274;22733;-85
2022/05/20 04:17:42;;;;;;;9.60;6.90;;;;;;;11.05;65.73;98348.81;105827;1274;22639;-86
2022/05/20 04:20:10;;;;;;;8.50;6.60;;;;;;;11.16;65.43;98349.52;105998;1274;24166;-84
2022/05/20 04:22:39;;;;;;;12.30;8.40;;;;;;;11.27;65.45;98348.96;106943;1274;22531;-86
2022/05/20 04:25:07;;;;;;;7.90;6.60;;;;;;;11.38;65.37;98352.38;105883;1275;22644;-86
2022/05/20 04:27:35;;;;;;;11.30;6.80;;;;;;;11.52;65.41;98344.70;105887;1274;22608;-87
2022/05/20 04:30:05;;;;;;;13.00;6.90;;;;;;;11.69;65.16;98348.46;105953;1274;22580;-86
2022/05/20 04:32:33;;;;;;;12.90;7.10;;;;;;;11.83;64.90;98351.48;106208;1274;23201;-85
2022/05/20 04:35:01;;;;;;;11.20;6.90;;;;;;;11.96;64.88;98353.75;105986;1274;25242;-86
2022/05/20 04:37:29;;;;;;;14.20;6.80;;;;;;;12.09;64.55;98352.45;106624;1274;22545;-85
2022/05/20 04:39:57;;;;;;;11.20;6.70;;;;;;;12.24;64.54;98353.42;105876;1274;22632;-87
2022/05/20 04:48:02;;;;;;;13.00;7.10;;;;;;;12.85;63.34;98346.79;106178;1274;24292;-85
2022/05/20 04:50:29;;;;;;;15.60;7.20;;;;;;;13.04;63.22;98349.36;106146;1274;22705;-86
2022/05/20 04:53:04;;;;;;;15.50;8.20;;;;;;;13.25;62.93;98351.19;106012;1275;22562;-85
2022/05/20 04:55:32;;;;;;;16.90;8.90;;;;;;;13.44;61.95;98353.48;105880;1274;22881;-87
2022/05/20 04:58:00;;;;;;;13.80;7.90;;;;;;;13.63;61.95;98363.64;105972;1274;23242;-87
2022/05/20 05:00:30;;;;;;;11.10;7.40;;;;;;;13.80;61.12;98364.42;105983;1274;22628;-86
2022/05/20 05:02:58;;;;;;;11.80;7.90;;;;;;;13.98;61.23;98364.03;105860;1274;22547;-84
2022/05/20 05:05:28;;;;;;;13.30;8.50;;;;;;;14.15;59.89;98356.64;105822;1274;23931;-87
2022/05/20 05:07:57;;;;;;;15.50;7.70;;;;;;;14.28;57.79;98357.95;105989;1274;24223;-86
2022/05/20 05:10:30;;;;;;;11.70;8.00;;;;;;;14.45;57.67;98359.73;105931;1274;22619;-86
2022/05/20 05:13:00;;;;;;;18.50;7.70;;;;;;;14.62;55.37;98355.59;105758;1274;22699;-86
2022/05/20 05:15:29;;;;;;;11.70;7.60;;;;;;;14.79;55.35;98361.34;105907;1274;25727;-86
2022/05/20 05:18:21;;;;;;;12.00;7.60;;;;;;;14.98;56.74;98368.82;106169;1274;25255;-87
2022/05/20 05:20:51;;;;;;;15.50;8.00;;;;;;;15.13;53.58;98370.42;106108;1274;22556;-85
2022/05/20 05:23:20;;;;;;;9.60;6.90;;;;;;;15.22;53.29;98368.80;106069;1274;24261;-85
2022/05/20 05:25:49;;;;;;;18.20;9.10;;;;;;;15.29;54.13;98366.64;105927;1274;24339;-88
2022/05/20 05:28:18;;;;;;;11.30;7.60;;;;;;;15.36;53.68;98367.66;105989;1274;22594;-86
2022/05/20 05:30:48;;;;;;;13.00;7.20;;;;;;;15.42;51.95;98363.67;106272;1274;22568;-86
2022/05/20 05:33:18;;;;;;;21.50;6.80;;;;;;;15.51;52.09;98359.86;106252;1274;26521;-87
2022/05/20 05:35:46;;;;;;;20.30;7.30;;;;;;;15.64;51.68;98364.27;105843;1274;24232;-87
2022/05/20 05:38:13;;;;;;;17.00;7.10;;;;;;;15.77;51.38;98363.38;105980;1274;22628;-86
2022/05/20 05:40:41;;;;;;;14.60;7.20;;;;;;;15.86;51.72;98365.73;105992;1274;22662;-86
2022/05/20 05:43:09;;;;;;;18.50;9.10;;;;;;;15.94;51.14;98368.77;105869;1274;24567;-85
2022/05/20 05:45:38;;;;;;;20.50;7.10;;;;;;;15.97;50.00;98378.61;105867;1274;24392;-85
2022/05/20 05:48:08;;;;;;;15.40;7.40;;;;;;;16.00;50.30;98378.59;105951;1274;22998;-86
2022/05/20 05:50:39;;;;;;;24.20;8.90;;;;;;;16.09;49.69;98376.24;106004;1274;22652;-87
2022/05/20 05:53:19;;;;;;;18.20;8.50;;;;;;;16.20;49.50;98383.60;105976;1274;22702;-86
2022/05/20 05:55:53;;;;;;;20.10;9.20;;;;;;;16.30;48.33;98382.81;105952;1274;25480;-87
2022/05/20 05:58:21;;;;;;;12.40;7.20;;;;;;;16.42;47.64;98382.27;105864;1274;23952;-85
2022/05/20 06:00:49;;;;;;;11.70;6.60;;;;;;;16.52;47.53;98383.55;106330;1272;22550;-85
2022/05/20 06:03:17;;;;;;;15.20;7.20;;;;;;;16.67;47.39;98382.83;106853;1274;22855;-87
2022/05/20 06:05:45;;;;;;;15.10;7.90;;;;;;;16.83;48.26;98381.10;106246;1276;24306;-87
2022/05/20 06:08:14;;;;;;;14.50;7.80;;;;;;;17.00;47.11;98383.20;106021;1274;24377;-86
2022/05/20 06:10:44;;;;;;;14.40;7.60;;;;;;;17.11;45.83;98380.60;105856;1274;24296;-86
2022/05/20 06:13:13;;;;;;;15.70;7.40;;;;;;;17.24;45.57;98387.09;106007;1274;24242;-85
2022/05/20 06:15:41;;;;;;;9.40;5.90;;;;;;;17.37;45.93;98383.89;105955;1273;22545;-87
2022/05/20 06:18:09;;;;;;;11.00;6.50;;;;;;;17.47;44.99;98383.27;107684;1276;23203;-87
2022/05/20 06:20:37;;;;;;;23.40;11.20;;;;;;;17.49;44.09;98388.57;108465;1275;23963;-85
2022/05/20 06:23:08;;;;;;;41.80;23.20;;;;;;;17.50;44.01;98388.38;106333;1274;22731;-88
2022/05/20 06:25:37;;;;;;;19.10;10.30;;;;;;;17.57;44.42;98383.54;105927;1274;22565;-86
2022/05/20 06:28:25;;;;;;;13.80;7.20;;;;;;;17.70;45.58;98380.55;105974;1274;22545;-87
2022/05/20 06:30:53;;;;;;;17.20;7.40;;;;;;;17.87;45.41;98376.91;106176;1274;22676;-86
2022/05/20 06:33:21;;;;;;;14.30;6.40;;;;;;;17.99;45.19;98379.75;105797;1276;22602;-88
2022/05/20 06:41:22;;;;;;;10.50;6.40;;;;;;;18.35;44.58;98381.20;105944;1274;22748;-86
2022/05/20 06:43:50;;;;;;;11.60;6.30;;;;;;;18.50;44.94;98381.55;105948;1274;25450;-88
2022/05/20 06:46:19;;;;;;;12.80;6.90;;;;;;;18.64;44.66;98381.77;105861;1276;25384;-88
2022/05/20 06:48:56;;;;;;;17.40;6.70;;;;;;;18.76;44.65;98377.84;105733;1275;22701;-88
2022/05/20 06:51:34;;;;;;;11.10;6.20;;;;;;;18.88;44.31;98385.23;105957;1274;22556;-87
2022/05/20 06:54:05;;;;;;;11.00;6.50;;;;;;;18.95;44.08;98379.66;106015;1274;25220;-86
2022/05/20 06:56:34;;;;;;;20.10;9.10;;;;;;;19.01;44.08;98388.86;105976;1274;22560;-86
2022/05/20 06:59:04;;;;;;;19.50;10.80;;;;;;;19.06;43.68;98391.75;105710;1275;25487;-86
2022/05/20 07:01:32;;;;;;;15.10;5.60;;;;;;;19.13;43.85;98394.45;105836;1274;24407;-87
2022/05/20 07:04:00;;;;;;;14.70;7.20;;;;;;;19.21;43.51;98397.97;105797;1274;22625;-87
2022/05/20 07:06:30;;;;;;;11.30;5.60;;;;;;;19.25;43.80;98392.02;105859;1274;25371;-87
2022/05/20 07:08:59;;;;;;;8.70;4.70;;;;;;;19.35;43.68;98390.20;105984;1274;25471;-85
2022/05/20 07:11:27;;;;;;;9.40;5.50;;;;;;;19.42;43.72;98386.34;105926;1274;23317;-86
2022/05/20 07:13:56;;;;;;;11.40;5.00;;;;;;;19.52;43.66;98381.95;105994;1274;22869;-85
2022/05/20 07:16:27;;;;;;;12.70;5.60;;;;;;;19.62;43.66;98384.45;105970;1274;24039;-87
2022/05/20 07:18:55;;;;;;;17.00;6.10;;;;;;;19.73;43.67;98387.44;106246;1274;25461;-87
2022/05/20 07:21:23;;;;;;;10.50;5.20;;;;;;;19.82;43.34;98388.08;105806;1274;24373;-86
2022/05/20 07:23:51;;;;;;;14.50;6.50;;;;;;;19.90;43.27;98395.34;105739;1275;24295;-85
2022/05/20 07:26:19;;;;;;;12.80;6.20;;;;;;;20.00;43.55;98395.77;105727;1275;22613;-86
2022/05/20 07:28:48;;;;;;;15.60;6.10;;;;;;;20.13;43.31;98400.09;105931;1274;22593;-87
2022/05/20 07:31:17;;;;;;;13.70;5.40;;;;;;;20.28;43.19;98401.84;106020;1274;22544;-86
2022/05/20 07:33:45;;;;;;;18.40;6.30;;;;;;;20.43;42.65;98408.71;105867;1275;25932;-86
2022/05/20 07:36:12;;;;;;;20.90;6.30;;;;;;;20.54;42.34;98415.38;105974;1274;25366;-88
2022/05/20 07:38:41;;;;;;;14.60;5.40;;;;;;;20.63;41.88;98419.59;106031;1274;23977;-87
2022/05/20 07:41:10;;;;;;;17.20;5.50;;;;;;;20.68;41.48;98412.19;106200;1274;22727;-86
2022/05/20 07:43:39;;;;;;;13.20;3.50;;;;;;;20.70;41.81;98415.44;106342;1274;22732;-87
2022/05/20 07:46:07;;;;;;;15.40;3.60;;;;;;;20.75;41.90;98421.52;107138;1274;22642;-87
2022/05/20 07:48:35;;;;;;;8.10;3.40;;;;;;;20.80;42.10;98421.09;105853;1275;27302;-87
2022/05/20 07:51:07;;;;;;;15.60;4.10;;;;;;;20.83;42.14;98417.52;106066;1274;25316;-85
2022/05/20 07:53:44;;;;;;;10.20;4.20;;;;;;;20.86;42.11;98417.58;105980;1274;26631;-86
2022/05/20 07:56:17;;;;;;;13.70;5.90;;;;;;;20.90;42.23;98413.45;105926;1275;22715;-88
2022/05/20 07:58:50;;;;;;;12.20;4.40;;;;;;;20.94;42.35;98418.33;106143;1274;25324;-88
2022/05/20 08:01:24;;;;;;;11.90;4.00;;;;;;;20.97;42.72;98416.27;106264;1274;22629;-86
2022/05/20 08:06:44;;;;;;;9.40;4.10;;;;;;;21.01;42.61;98404.48;105893;1274;24423;-88
2022/05/20 08:09:12;;;;;;;12.90;4.80;;;;;;;21.09;42.70;98404.59;105927;1274;22555;-87
2022/05/20 08:11:40;;;;;;;8.50;3.90;;;;;;;21.18;42.51;98400.64;107658;1274;24460;-81
2022/05/20 08:14:08;;;;;;;15.30;4.70;;;;;;;21.28;42.57;98395.52;109223;1274;22540;-85
2022/05/20 08:16:36;;;;;;;10.40;4.30;;;;;;;21.33;42.76;98393.48;107390;1275;25173;-87
2022/05/20 08:19:04;;;;;;;18.20;7.00;;;;;;;21.42;42.64;98397.04;107160;1275;23019;-83
2022/05/20 08:21:32;;;;;;;15.00;4.70;;;;;;;21.50;42.30;98393.47;109541;1274;23105;-84
2022/05/20 08:24:02;;;;;;;8.70;4.50;;;;;;;21.60;41.76;98393.43;109372;1274;22585;-84
2022/05/20 08:26:30;;;;;;;13.80;4.90;;;;;;;21.69;41.55;98386.20;109230;1274;23552;-86
2022/05/20 08:28:59;;;;;;;9.70;4.20;;;;;;;21.84;41.23;98393.61;107978;1274;24299;-88
2022/05/20 08:31:27;;;;;;;12.30;4.50;;;;;;;21.95;41.06;98389.94;108474;1274;25585;-88
2022/05/20 08:33:55;;;;;;;14.90;5.40;;;;;;;21.96;40.71;98392.45;108403;1275;22718;-87
2022/05/20 08:36:23;;;;;;;10.10;4.00;;;;;;;21.88;40.53;98388.45;107250;1274;22661;-86
2022/05/20 08:38:51;;;;;;;15.40;6.00;;;;;;;21.79;40.63;98387.79;106894;1274;22690;-88
2022/05/20 08:41:25;;;;;;;8.40;4.10;;;;;;;21.73;40.86;98387.04;106266;1274;24232;-87
2022/05/20 08:43:53;;;;;;;12.10;4.30;;;;;;;21.77;40.68;98380.64;106268;1274;25290;-87
2022/05/20 08:46:23;;;;;;;15.90;4.60;;;;;;;21.91;40.52;98383.66;106207;1274;23380;-87
2022/05/20 08:48:55;;;;;;;14.10;5.10;;;;;;;22.05;40.79;98384.23;106314;1274;24237;-85
2022/05/20 08:51:28;;;;;;;13.70;5.60;;;;;;;22.29;40.83;98377.65;105991;1274;25536;-85
2022/05/20 08:53:56;;;;;;;8.70;3.80;;;;;;;22.44;40.45;98382.85;105982;1274;24442;-88
2022/05/20 08:56:25;;;;;;;9.70;3.80;;;;;;;22.47;40.40;98381.58;105985;1276;25371;-86
2022/05/20 08:59:00;;;;;;;16.20;4.90;;;;;;;22.47;40.19;98385.27;107024;1274;22721;-88
2022/05/20 09:01:40;;;;;;;16.10;4.80;;;;;;;22.42;40.21;98387.30;108732;1274;22871;-87
2022/05/20 09:04:13;;;;;;;12.10;4.20;;;;;;;22.42;40.58;98377.58;107092;1274;22559;-88
2022/05/20 09:06:58;;;;;;;10.80;4.20;;;;;;;22.48;40.41;98379.77;106016;1275;22714;-88
2022/05/20 09:09:39;;;;;;;12.80;4.90;;;;;;;22.49;40.74;98378.70;107148;1274;22914;-87
2022/05/20 09:12:09;;;;;;;8.80;4.00;;;;;;;22.60;40.81;98378.58;106180;1274;22551;-90
2022/05/20 09:17:25;;;;;;;11.90;4.40;;;;;;;22.85;40.78;98371.77;105849;1274;22557;-87
2022/05/20 09:20:02;;;;;;;11.90;4.40;;;;;;;23.00;40.77;98371.41;105945;1274;24635;-88
2022/05/20 09:22:35;;;;;;;11.30;5.50;;;;;;;23.14;40.47;98367.05;105979;1274;22556;-88
2022/05/20 09:25:15;;;;;;;9.50;5.20;;;;;;;23.21;40.35;98367.55;106004;1274;22713;-87
2022/05/20 09:27:51;;;;;;;13.40;5.80;;;;;;;23.29;40.05;98368.13;106914;1274;22964;-86
2022/05/20 09:30:25;;;;;;;14.70;5.30;;;;;;;23.39;40.12;98364.17;106347;1274;22692;-88
2022/05/20 09:33:16;;;;;;;13.60;4.90;;;;;;;23.41;39.90;98363.27;106012;1274;22766;-87
2022/05/20 09:35:53;;;;;;;10.00;4.30;;;;;;;23.42;39.72;98363.21;105964;1275;26635;-89
2022/05/20 09:38:42;;;;;;;13.10;6.20;;;;;;;23.39;39.79;98351.14;106025;1274;22702;-89
2022/05/20 09:41:22;;;;;;;12.40;5.60;;;;;;;23.58;39.94;98345.41;106227;1274;22545;-88
2022/05/20 09:43:57;;;;;;;10.80;4.70;;;;;;;23.77;39.51;98347.09;106179;1274;25360;-88
2022/05/20 09:46:39;;;;;;;11.60;5.30;;;;;;;23.84;39.36;98340.08;106225;1274;22583;-88
2022/05/20 09:49:17;;;;;;;13.70;6.60;;;;;;;23.97;39.48;98331.04;106122;1274;22754;-88
2022/05/20 09:51:58;;;;;;;11.90;5.50;;;;;;;24.10;39.19;98331.78;106265;1274;24224;-88
2022/05/20 09:54:37;;;;;;;8.60;4.60;;;;;;;24.24;39.34;98320.77;106211;1274;22607;-89
2022/05/20 09:57:10;;;;;;;12.60;4.70;;;;;;;24.35;39.01;98315.89;106132;1274;24319;-88
2022/05/20 09:59:56;;;;;;;11.80;4.60;;;;;;;24.35;38.75;98312.73;106030;1274;26753;-85
2022/05/20 10:02:36;;;;;;;11.30;4.30;;;;;;;24.53;38.66;98314.42;106134;1274;24203;-87
2022/05/20 10:05:20;;;;;;;11.50;3.90;;;;;;;24.60;38.39;98311.32;106245;1274;22603;-88
2022/05/20 10:08:00;;;;;;;13.80;4.30;;;;;;;24.61;38.03;98314.24;106110;1274;22797;-90
2022/05/20 10:10:47;;;;;;;16.50;6.10;;;;;;;24.58;37.94;98306.91;106119;1276;22557;-88
2022/05/20 10:13:24;;;;;;;11.40;4.20;;;;;;;24.66;38.07;98299.64;106022;1275;25371;-90
2022/05/20 10:16:09;;;;;;;11.70;5.00;;;;;;;24.87;37.87;98300.49;106096;1274;25462;-88
2022/05/20 10:18:50;;;;;;;12.00;4.60;;;;;;;25.07;37.26;98302.12;106172;1274;25500;-88
2022/05/20 10:21:40;;;;;;;9.70;4.00;;;;;;;25.05;36.84;98302.50;105852;1274;22725;-88
2022/05/20 10:24:32;;;;;;;16.70;4.70;;;;;;;24.87;37.16;98296.09;106406;1274;25452;-88
2022/05/20 10:27:06;;;;;;;13.60;5.70;;;;;;;24.85;37.10;98290.64;106182;1274;22581;-88
2022/05/20 10:32:59;;;;;;;20.80;8.10;;;;;;;25.01;37.45;98284.90;106237;1274;23927;-86
2022/05/20 10:35:36;;;;;;;10.50;3.80;;;;;;;25.13;36.80;98298.54;106184;1274;22978;-87
2022/05/20 10:38:26;;;;;;;8.50;3.80;;;;;;;25.00;36.65;98292.70;106219;1274;22543;-86
2022/05/20 10:41:33;;;;;;;9.20;4.10;;;;;;;25.10;36.89;98298.43;106202;1274;22545;-88
2022/05/20 10:50:31;;;;;;;10.90;3.80;;;;;;;25.23;36.74;98295.77;106162;1274;22881;-87
2022/05/20 10:53:15;;;;;;;8.80;3.60;;;;;;;25.25;36.80;98299.16;106220;1274;22557;-88
2022/05/20 10:56:01;;;;;;;8.70;3.50;;;;;;;25.38;37.07;98298.51;106930;1274;22564;-87
2022/05/20 10:58:58;;;;;;;6.10;3.20;;;;;;;25.34;36.35;98295.82;106723;1274;22577;-87
2022/05/20 11:01:26;;;;;;;10.00;3.50;;;;;;;25.20;36.51;98293.09;107283;1274;22702;-88
2022/05/20 11:04:12;;;;;;;8.20;3.30;;;;;;;25.17;36.56;98293.84;106355;1274;25495;-87
2022/05/20 11:06:44;;;;;;;5.60;3.10;;;;;;;25.12;36.50;98289.85;106513;1275;25366;-88
2022/05/20 11:09:24;;;;;;;6.30;2.80;;;;;;;25.08;36.73;98291.79;107273;1274;23404;-85
2022/05/20 11:12:01;;;;;;;5.90;3.40;;;;;;;25.20;36.86;98288.41;106355;1274;22535;-87
2022/05/20 11:14:47;;;;;;;8.90;3.50;;;;;;;25.27;36.99;98285.23;106664;1274;22618;-87
2022/05/20 11:17:27;;;;;;;7.80;2.90;;;;;;;25.42;37.04;98271.50;106547;1274;22543;-88
2022/05/20 11:20:04;;;;;;;6.30;3.10;;;;;;;25.59;36.92;98270.45;106893;1274;22541;-88
2022/05/20 11:22:54;;;;;;;6.70;3.20;;;;;;;25.65;36.54;98267.23;106527;1274;22566;-85
2022/05/20 11:25:45;;;;;;;7.80;3.00;;;;;;;25.66;36.51;98263.21;106206;1274;23939;-86
2022/05/20 11:28:22;;;;;;;6.20;2.90;;;;;;;25.68;36.56;98258.41;105836;1275;22583;-87
2022/05/20 11:31:18;;;;;;;7.20;3.00;;;;;;;25.81;36.55;98251.29;106262;1274;22774;-88
2022/05/20 11:34:04;;;;;;;8.10;3.40;;;;;;;25.98;36.50;98246.99;106017;1274;26811;-89
2022/05/20 11:36:38;;;;;;;7.60;3.20;;;;;;;26.30;36.36;98241.88;106205;1274;24325;-87
2022/05/20 11:39:26;;;;;;;;;;;;;;;26.44;36.12;98238.46;106191;1274;24425;-88
2022/05/20 11:42:16;;;;;;;9.60;3.10;;;;;;;26.58;35.89;98238.55;105791;1274;24230;-86
2022/05/20 11:45:09;;;;;;;9.70;3.10;;;;;;;26.54;35.51;98243.14;106213;1274;25435;-88
2022/05/20 11:48:06;;;;;;;9.50;3.00;;;;;;;26.49;35.32;98233.64;106125;1274;24564;-89
2022/05/20 11:51:09;;;;;;;6.40;3.20;;;;;;;26.49;35.42;98225.75;106138;1274;22620;-89
2022/05/20 11:53:43;;;;;;;10.90;3.20;;;;;;;26.64;35.44;98233.25;105837;1275;22563;-89
2022/05/20 11:56:30;;;;;;;5.50;2.80;;;;;;;26.66;35.54;98231.27;106142;1274;22757;-87
2022/05/20 11:59:25;;;;;;;8.90;3.40;;;;;;;26.82;35.57;98231.56;106170;1274;22674;-87
2022/05/20 12:01:57;;;;;;;9.30;3.10;;;;;;;27.02;35.42;98234.81;106177;1274;22546;-89
2022/05/20 12:04:29;;;;;;;8.90;3.10;;;;;;;27.15;34.92;98241.34;106305;1274;24438;-88
2022/05/20 12:07:01;;;;;;;4.80;2.50;;;;;;;27.13;34.90;98234.54;106232;1274;26719;-87
2022/05/20 12:09:34;;;;;;;6.70;2.50;;;;;;;27.15;34.58;98234.13;106293;1274;22805;-88
2022/05/20 12:12:09;;;;;;;6.40;2.70;;;;;;;27.17;34.81;98218.34;106130;1274;22704;-87
2022/05/20 12:14:56;;;;;;;5.90;2.60;;;;;;;27.36;34.78;98232.34;106294;1274;23970;-86
2022/05/20 12:17:35;;;;;;;9.10;3.10;;;;;;;27.35;34.24;98226.09;106202;1274;22619;-85
2022/05/20 12:26:00;;;;;;;8.60;2.60;;;;;;;27.78;34.21;98221.36;106068;1274;22694;-88
2022/05/20 12:28:35;;;;;;;11.10;3.30;;;;;;;27.73;33.81;98216.70;105977;1275;22844;-88